createdAt,value
2018-11-21T00:00:20.348Z,85.64
2018-11-21T00:02:50.196Z,85.59
2018-11-21T00:05:19.527Z,85.51
2018-11-21T00:07:48.879Z,85.62
2018-11-21T00:10:21.382Z,85.62
2018-11-21T00:12:53.855Z,85.26
2018-11-21T00:15:23.148Z,85.34
2018-11-21T00:17:52.876Z,85.33
2018-11-21T00:20:22.189Z,85.37
2018-11-21T00:22:51.614Z,85.13
2018-11-21T00:25:21.012Z,85.04
2018-11-21T00:27:50.340Z,84.96
2018-11-21T00:30:19.576Z,84.95
2018-11-21T00:32:49.162Z,84.89
2018-11-21T00:35:18.702Z,85.01
2018-11-21T00:37:52.339Z,85.00
2018-11-21T00:40:21.831Z,84.84
2018-11-21T00:43:00.520Z,84.89
2018-11-21T00:45:29.752Z,84.84
2018-11-21T00:47:59.109Z,84.74
2018-11-21T00:50:28.838Z,84.97
2018-11-21T00:53:18.434Z,84.97
2018-11-21T00:56:06.978Z,85.11
2018-11-21T00:58:36.611Z,85.05
2018-11-21T01:01:06.586Z,85.04
2018-11-21T01:03:36.233Z,85.12
2018-11-21T01:06:05.663Z,85.20
2018-11-21T01:08:35.041Z,85.13
2018-11-21T01:11:05.098Z,85.25
2018-11-21T01:13:34.434Z,85.37
2018-11-21T01:16:04.249Z,85.14
2018-11-21T01:18:33.026Z,85.41
2018-11-21T01:21:02.486Z,85.50
2018-11-21T01:23:33.918Z,85.49
2018-11-21T01:26:03.428Z,85.66
2018-11-21T01:28:32.722Z,85.78
2018-11-21T01:31:01.906Z,85.87
2018-11-21T01:33:31.103Z,85.81
2018-11-21T01:36:01.307Z,86.05
2018-11-21T01:38:30.868Z,86.27
2018-11-21T01:41:02.109Z,86.32
2018-11-21T01:43:33.997Z,86.29
2018-11-21T01:46:03.765Z,86.34
2018-11-21T01:48:33.281Z,86.31
2018-11-21T01:51:02.541Z,86.18
2018-11-21T01:53:31.907Z,86.24
2018-11-21T01:56:01.210Z,86.31
2018-11-21T01:58:30.464Z,86.35
2018-11-21T02:00:59.845Z,86.36
2018-11-21T02:03:31.381Z,86.40
2018-11-21T02:06:00.957Z,86.46
2018-11-21T02:08:30.224Z,86.57
2018-11-21T02:11:00.084Z,86.61
2018-11-21T02:13:29.488Z,86.86
2018-11-21T02:15:59.314Z,86.87
2018-11-21T02:18:28.545Z,87.03
2018-11-21T02:20:58.070Z,87.18
2018-11-21T02:23:27.687Z,87.19
2018-11-21T02:25:57.004Z,87.38
2018-11-21T02:28:26.785Z,87.50
2018-11-21T02:30:58.219Z,87.60
2018-11-21T02:33:27.458Z,87.60
2018-11-21T02:35:56.748Z,87.79
2018-11-21T02:38:26.092Z,87.82
2018-11-21T02:40:55.355Z,87.96
2018-11-21T02:43:24.754Z,88.17
2018-11-21T02:45:53.982Z,88.42
2018-11-21T02:48:23.312Z,88.59
2018-11-21T02:50:52.787Z,88.88
2018-11-21T02:53:22.963Z,88.89
2018-11-21T02:55:52.279Z,88.72
2018-11-21T02:58:24.304Z,88.83
2018-11-21T03:00:53.652Z,88.75
2018-11-21T03:03:22.902Z,88.71
2018-11-21T03:05:52.167Z,88.94
2018-11-21T03:08:22.760Z,88.78
2018-11-21T03:10:52.266Z,88.81
2018-11-21T03:13:28.148Z,88.79
2018-11-21T03:15:51.063Z,88.68
2018-11-21T03:18:20.368Z,88.55
2018-11-21T03:20:49.570Z,88.52
2018-11-21T03:23:18.823Z,88.34
2018-11-21T03:25:48.298Z,88.44
2018-11-21T03:28:17.555Z,88.50
2018-11-21T03:30:47.199Z,88.48
2018-11-21T03:33:16.387Z,88.54
2018-11-21T03:35:46.240Z,88.54
2018-11-21T03:38:15.603Z,88.40
2018-11-21T03:40:44.960Z,88.32
2018-11-21T03:43:16.341Z,88.29
2018-11-21T03:45:47.729Z,88.23
2018-11-21T03:48:17.270Z,88.23
2018-11-21T03:50:46.542Z,88.10
2018-11-21T03:53:15.951Z,88.17
2018-11-21T03:55:45.280Z,88.07
2018-11-21T03:58:14.618Z,88.06
2018-11-21T04:00:46.315Z,88.06
2018-11-21T04:03:15.708Z,88.21
2018-11-21T04:05:45.049Z,88.19
2018-11-21T04:08:14.399Z,88.20
2018-11-21T04:10:45.747Z,88.25
2018-11-21T04:13:15.275Z,88.35
2018-11-21T04:15:44.509Z,88.31
2018-11-21T04:18:13.811Z,88.41
2018-11-21T04:20:44.030Z,88.39
2018-11-21T04:23:13.388Z,88.39
2018-11-21T04:25:42.990Z,88.62
2018-11-21T04:28:12.283Z,88.40
2018-11-21T04:30:41.483Z,88.54
2018-11-21T04:33:10.739Z,88.46
2018-11-21T04:35:40.205Z,88.49
2018-11-21T04:38:09.702Z,88.68
2018-11-21T04:40:38.975Z,88.64
2018-11-21T04:43:08.284Z,88.65
2018-11-21T04:45:38.457Z,88.64
2018-11-21T04:48:08.260Z,88.54
2018-11-21T04:50:37.639Z,88.84
2018-11-21T04:53:06.891Z,89.12
2018-11-21T04:55:37.028Z,89.40
2018-11-21T04:58:07.167Z,89.66
2018-11-21T05:00:36.706Z,89.71
2018-11-21T05:03:06.367Z,89.84
2018-11-21T05:05:35.745Z,90.14
2018-11-21T05:08:07.751Z,90.16
2018-11-21T05:10:36.952Z,90.62
2018-11-21T05:13:06.301Z,90.87
2018-11-21T05:15:35.908Z,91.16
2018-11-21T05:18:05.260Z,91.29
2018-11-21T05:20:34.543Z,91.39
2018-11-21T05:23:03.900Z,91.43
2018-11-21T05:25:33.277Z,91.44
2018-11-21T05:28:02.625Z,91.49
2018-11-21T05:30:31.915Z,91.48
2018-11-21T05:33:01.131Z,91.52
2018-11-21T05:35:31.368Z,91.52
2018-11-21T05:38:00.716Z,91.52
2018-11-21T05:40:29.997Z,91.37
2018-11-21T05:43:01.909Z,91.37
2018-11-21T05:45:31.115Z,91.33
2018-11-21T05:48:00.361Z,91.33
2018-11-21T05:50:29.834Z,91.44
2018-11-21T05:52:59.104Z,91.43
2018-11-21T05:55:28.372Z,91.34
2018-11-21T05:57:57.740Z,91.46
2018-11-21T06:00:27.387Z,91.41
2018-11-21T06:02:57.176Z,91.53
2018-11-21T06:05:26.824Z,91.47
2018-11-21T06:07:56.184Z,91.46
2018-11-21T06:10:25.453Z,91.50
2018-11-21T06:12:54.751Z,91.57
2018-11-21T06:15:24.105Z,91.48
2018-11-21T06:17:54.331Z,91.47
2018-11-21T06:20:27.093Z,91.56
2018-11-21T06:22:56.308Z,91.69
2018-11-21T06:25:25.522Z,91.71
2018-11-21T06:27:55.271Z,91.64
2018-11-21T06:30:24.429Z,91.62
2018-11-21T06:32:53.732Z,91.66
2018-11-21T06:35:23.039Z,91.73
2018-11-21T06:37:53.009Z,91.74
2018-11-21T06:40:22.524Z,91.80
2018-11-21T06:42:56.935Z,91.86
2018-11-21T06:45:28.499Z,91.87
2018-11-21T06:47:58.217Z,91.83
2018-11-21T06:50:27.534Z,91.88
2018-11-21T06:52:57.860Z,91.77
2018-11-21T06:55:27.385Z,91.68
2018-11-21T06:57:57.680Z,91.90
2018-11-21T07:00:27.138Z,91.67
2018-11-21T07:02:57.979Z,91.49
2018-11-21T07:05:27.240Z,91.45
2018-11-21T07:08:00.601Z,91.40
2018-11-21T07:10:30.099Z,91.23
2018-11-21T07:12:59.572Z,91.08
2018-11-21T07:15:29.045Z,91.17
2018-11-21T07:17:58.182Z,91.10
2018-11-21T07:20:27.771Z,91.13
2018-11-21T07:22:57.164Z,90.92
2018-11-21T07:25:26.428Z,90.92
2018-11-21T07:27:55.684Z,90.92
2018-11-21T07:30:25.014Z,90.93
2018-11-21T07:32:54.819Z,90.96
2018-11-21T07:35:25.298Z,90.92
2018-11-21T07:37:56.095Z,91.05
2018-11-21T07:40:25.694Z,91.06
2018-11-21T07:42:55.007Z,91.17
2018-11-21T07:45:24.854Z,91.02
2018-11-21T07:47:55.553Z,90.96
2018-11-21T07:50:25.186Z,91.02
2018-11-21T07:52:54.772Z,90.80
2018-11-21T07:55:24.060Z,90.79
2018-11-21T07:58:04.846Z,90.95
2018-11-21T08:01:26.098Z,90.83
2018-11-21T08:04:00.993Z,90.71
2018-11-21T08:06:48.349Z,90.47
2018-11-21T08:09:45.965Z,90.45
2018-11-21T08:12:34.208Z,90.47
2018-11-21T08:15:25.666Z,90.46
2018-11-21T08:18:17.031Z,90.45
2018-11-21T08:20:59.565Z,90.39
2018-11-21T08:24:06.298Z,90.22
2018-11-21T08:27:10.139Z,90.10
2018-11-21T08:29:40.603Z,90.06
2018-11-21T08:32:09.957Z,89.97
2018-11-21T08:34:39.890Z,89.83
2018-11-21T08:37:10.078Z,91.51
2018-11-21T08:39:39.395Z,90.56
2018-11-21T08:42:08.677Z,90.04
2018-11-21T08:44:40.163Z,89.90
2018-11-21T08:47:09.465Z,89.75
2018-11-21T08:49:39.737Z,89.83
2018-11-21T08:52:09.271Z,89.65
2018-11-21T08:54:39.472Z,89.39
2018-11-21T08:57:11.655Z,89.39
2018-11-21T08:59:41.877Z,89.41
2018-11-21T09:02:11.152Z,89.18
2018-11-21T09:04:40.436Z,88.99
2018-11-21T09:07:09.758Z,88.97
2018-11-21T09:09:40.055Z,89.04
2018-11-21T09:12:11.142Z,89.11
2018-11-21T09:14:42.273Z,88.84
2018-11-21T09:17:11.646Z,88.82
2018-11-21T09:19:40.934Z,88.74
2018-11-21T09:22:10.466Z,88.67
2018-11-21T09:24:40.125Z,88.73
2018-11-21T09:27:09.847Z,88.75
2018-11-21T09:29:41.811Z,88.71
2018-11-21T09:32:11.135Z,88.72
2018-11-21T09:34:40.404Z,88.70
2018-11-21T09:37:16.366Z,88.65
2018-11-21T09:39:45.635Z,88.88
2018-11-21T09:42:14.946Z,88.82
2018-11-21T09:44:45.193Z,88.58
2018-11-21T09:47:14.562Z,88.43
2018-11-21T09:49:43.762Z,88.43
2018-11-21T09:52:14.335Z,88.31
2018-11-21T09:54:43.890Z,88.32
2018-11-21T09:57:18.854Z,88.28
2018-11-21T09:59:48.344Z,88.17
2018-11-21T10:02:54.441Z,88.25
2018-11-21T10:05:24.154Z,88.35
2018-11-21T10:08:28.203Z,88.44
2018-11-21T10:10:57.458Z,88.34
2018-11-21T10:13:26.779Z,88.30
2018-11-21T10:15:56.618Z,88.04
2018-11-21T10:18:25.391Z,88.20
2018-11-21T10:20:54.630Z,88.36
2018-11-21T10:23:26.797Z,88.17
2018-11-21T10:25:56.495Z,88.04
2018-11-21T10:29:36.655Z,87.89
2018-11-21T10:32:07.431Z,88.10
2018-11-21T10:34:38.266Z,87.91
2018-11-21T10:37:10.137Z,88.04
2018-11-21T10:39:40.911Z,88.07
2018-11-21T10:42:21.741Z,87.95
2018-11-21T10:44:50.930Z,88.02
2018-11-21T10:47:22.631Z,87.96
2018-11-21T10:49:56.421Z,88.18
2018-11-21T10:52:31.710Z,87.99
2018-11-21T10:55:02.552Z,87.90
2018-11-21T10:57:34.547Z,87.99
2018-11-21T11:00:42.752Z,87.94
2018-11-21T11:03:20.066Z,88.00
2018-11-21T11:06:10.801Z,87.98
2018-11-21T11:08:59.682Z,87.95
2018-11-21T11:11:58.324Z,88.01
2018-11-21T11:14:46.495Z,88.22
2018-11-21T11:17:37.332Z,88.45
2018-11-21T11:20:35.818Z,88.39
2018-11-21T11:23:20.733Z,88.50
2018-11-21T11:26:16.830Z,88.45
2018-11-21T11:29:15.279Z,88.37
2018-11-21T11:32:16.706Z,88.11
2018-11-21T11:35:59.311Z,88.19
2018-11-21T11:39:06.910Z,88.53
2018-11-21T11:42:06.064Z,88.13
2018-11-21T11:44:58.632Z,87.98
2018-11-21T11:47:59.725Z,87.68
2018-11-21T11:50:56.857Z,87.66
2018-11-21T11:53:58.083Z,87.57
2018-11-21T11:56:46.946Z,87.38
2018-11-21T11:59:27.242Z,87.50
2018-11-21T12:02:15.309Z,87.45
2018-11-21T12:05:09.399Z,87.51
2018-11-21T12:07:58.243Z,86.90
2018-11-21T12:10:46.686Z,86.24
2018-11-21T12:13:41.592Z,87.27
2018-11-21T12:16:47.900Z,87.48
2018-11-21T12:19:41.179Z,87.54
2018-11-21T12:22:38.141Z,87.63
2018-11-21T12:25:45.812Z,87.84
2018-11-21T12:28:34.359Z,87.55
2018-11-21T12:31:43.037Z,87.77
2018-11-21T12:34:31.508Z,87.63
2018-11-21T12:37:20.712Z,87.75
2018-11-21T12:40:08.987Z,87.84
2018-11-21T12:43:17.307Z,87.87
2018-11-21T12:49:37.037Z,87.99
2018-11-21T12:52:30.298Z,88.00
2018-11-21T12:55:26.945Z,87.99
2018-11-21T12:58:16.359Z,88.14
2018-11-21T13:01:14.689Z,87.98
2018-11-21T13:03:59.379Z,88.10
2018-11-21T13:07:01.987Z,88.26
2018-11-21T13:09:56.707Z,88.34
2018-11-21T13:12:35.911Z,88.41
2018-11-21T13:15:19.386Z,88.42
2018-11-21T13:18:09.569Z,88.56
2018-11-21T13:21:11.965Z,88.56
2018-11-21T13:24:05.660Z,88.75
2018-11-21T13:26:53.395Z,88.92
2018-11-21T13:29:49.346Z,88.98
2018-11-21T13:32:40.962Z,88.90
2018-11-21T13:35:40.858Z,88.79
2018-11-21T13:38:23.383Z,88.88
2018-11-21T13:41:28.947Z,89.03
2018-11-21T13:44:21.332Z,89.07
2018-11-21T13:47:09.558Z,89.24
2018-11-21T13:49:57.991Z,89.01
2018-11-21T13:53:05.726Z,89.07
2018-11-21T13:55:37.361Z,89.20
2018-11-21T13:58:08.153Z,89.07
2018-11-21T14:00:38.695Z,89.13
2018-11-21T14:03:11.699Z,88.97
2018-11-21T14:05:42.802Z,88.99
2018-11-21T14:08:13.520Z,89.13
2018-11-21T14:10:46.493Z,89.30
2018-11-21T14:13:17.437Z,89.36
2018-11-21T14:15:49.346Z,89.46
2018-11-21T14:18:20.857Z,89.51
2018-11-21T14:21:01.966Z,89.64
2018-11-21T14:23:33.868Z,89.58
2018-11-21T14:26:06.490Z,89.49
2018-11-21T14:28:40.795Z,89.75
2018-11-21T14:31:12.274Z,89.59
2018-11-21T14:33:42.986Z,89.65
2018-11-21T14:36:14.642Z,89.77
2018-11-21T14:38:45.359Z,89.80
2018-11-21T14:41:16.190Z,89.73
2018-11-21T14:43:48.293Z,89.49
2018-11-21T14:46:26.728Z,89.53
2018-11-21T14:48:57.956Z,89.53
2018-11-21T14:51:28.990Z,89.45
2018-11-21T14:54:06.547Z,89.49
2018-11-21T14:57:02.306Z,89.48
2018-11-21T14:59:34.173Z,89.63
2018-11-21T15:02:04.816Z,89.73
2018-11-21T15:04:35.505Z,89.45
2018-11-21T15:07:07.414Z,89.47
2018-11-21T15:09:38.050Z,89.44
2018-11-21T15:12:08.656Z,89.54
2018-11-21T15:14:39.894Z,89.41
2018-11-21T15:17:10.832Z,89.50
2018-11-21T15:19:41.437Z,89.31
2018-11-21T15:22:12.173Z,89.39
2018-11-21T15:24:42.755Z,89.39
2018-11-21T15:27:13.499Z,89.45
2018-11-21T15:29:44.146Z,89.46
2018-11-21T15:32:14.758Z,89.54
2018-11-21T15:34:46.160Z,89.72
2018-11-21T15:37:16.885Z,89.64
2018-11-21T15:39:47.753Z,89.70
2018-11-21T15:42:18.344Z,89.95
2018-11-21T15:44:49.046Z,89.97
2018-11-21T15:47:19.697Z,90.08
2018-11-21T15:49:51.113Z,90.11
2018-11-21T15:52:21.932Z,90.06
2018-11-21T15:55:09.958Z,90.20
2018-11-21T15:57:40.658Z,90.25
2018-11-21T16:00:25.733Z,90.19
2018-11-21T16:02:59.067Z,90.06
2018-11-21T16:05:30.550Z,90.12
2018-11-21T16:08:03.476Z,90.00
2018-11-21T16:10:35.659Z,90.13
2018-11-21T16:13:13.832Z,90.33
2018-11-21T16:15:52.063Z,90.46
2018-11-21T16:18:24.438Z,90.41
2018-11-21T16:20:54.995Z,90.50
2018-11-21T16:23:26.640Z,90.72
2018-11-21T16:25:59.513Z,90.68
2018-11-21T16:28:30.206Z,90.92
2018-11-21T16:31:01.437Z,90.90
2018-11-21T16:33:32.117Z,90.86
2018-11-21T16:36:03.097Z,91.16
2018-11-21T16:38:34.212Z,91.16
2018-11-21T16:41:07.013Z,91.33
2018-11-21T16:43:37.599Z,91.25
2018-11-21T16:46:10.993Z,91.18
2018-11-21T16:48:42.598Z,91.38
2018-11-21T16:51:20.323Z,91.35
2018-11-21T16:54:08.215Z,91.20
2018-11-21T16:56:56.949Z,91.30
2018-11-21T16:59:23.978Z,91.35
2018-11-21T17:01:54.599Z,91.20
2018-11-21T17:04:26.164Z,91.23
2018-11-21T17:06:56.770Z,91.39
2018-11-21T17:09:40.393Z,91.41
2018-11-21T17:12:12.542Z,91.50
2018-11-21T17:14:43.811Z,91.68
2018-11-21T17:17:14.593Z,91.77
2018-11-21T17:19:45.271Z,91.77
2018-11-21T17:22:15.914Z,91.88
2018-11-21T17:24:46.699Z,91.88
2018-11-21T17:27:17.269Z,91.91
2018-11-21T17:29:53.814Z,91.92
2018-11-21T17:32:18.372Z,91.97
2018-11-21T17:34:48.932Z,92.00
2018-11-21T17:37:20.047Z,91.88
2018-11-21T17:39:50.694Z,91.85
2018-11-21T17:42:21.308Z,92.02
2018-11-21T17:48:41.705Z,92.01
2018-11-21T17:51:49.915Z,92.08
2018-11-21T17:54:20.583Z,91.98
2018-11-21T17:56:51.395Z,91.94
2018-11-21T17:59:22.092Z,91.88
2018-11-21T18:01:52.995Z,91.73
2018-11-21T18:04:23.541Z,91.81
2018-11-21T18:06:54.214Z,91.79
2018-11-21T18:09:24.885Z,91.79
2018-11-21T18:11:55.569Z,91.84
2018-11-21T18:14:26.101Z,91.86
2018-11-21T18:16:56.703Z,91.91
2018-11-21T18:19:27.401Z,92.06
2018-11-21T18:21:58.522Z,92.13
2018-11-21T18:24:29.435Z,92.19
2018-11-21T18:27:00.250Z,92.30
2018-11-21T18:29:30.851Z,92.41
2018-11-21T18:32:01.567Z,92.44
2018-11-21T18:34:32.142Z,92.41
2018-11-21T18:37:02.780Z,92.45
2018-11-21T18:39:33.647Z,92.34
2018-11-21T18:42:04.501Z,92.32
2018-11-21T18:44:35.057Z,92.35
2018-11-21T18:47:05.815Z,92.35
2018-11-21T18:49:36.421Z,92.32
2018-11-21T18:52:07.252Z,92.43
2018-11-21T18:54:38.222Z,92.43
2018-11-21T18:57:54.496Z,92.60
2018-11-21T19:00:28.230Z,92.52
2018-11-21T19:02:59.038Z,92.54
2018-11-21T19:05:29.637Z,92.51
2018-11-21T19:08:00.253Z,92.52
2018-11-21T19:10:30.904Z,92.49
2018-11-21T19:13:01.638Z,92.64
2018-11-21T19:15:32.171Z,92.52
2018-11-21T19:18:02.834Z,92.66
2018-11-21T19:20:33.483Z,92.52
2018-11-21T19:23:04.219Z,92.48
2018-11-21T19:25:34.838Z,92.49
2018-11-21T19:28:05.439Z,92.61
2018-11-21T19:30:36.081Z,92.67
2018-11-21T19:33:07.217Z,92.90
2018-11-21T19:35:37.787Z,92.93
2018-11-21T19:38:08.474Z,92.96
2018-11-21T19:40:39.154Z,92.89
2018-11-21T19:43:10.004Z,93.10
2018-11-21T19:45:49.451Z,93.18
2018-11-21T19:48:56.835Z,93.32
2018-11-21T19:51:26.563Z,93.23
2018-11-21T19:53:57.382Z,93.32
2018-11-21T19:56:28.017Z,93.32
2018-11-21T19:58:59.101Z,93.45
2018-11-21T20:01:39.350Z,93.38
2018-11-21T20:04:10.185Z,93.47
2018-11-21T20:06:42.724Z,93.57
2018-11-21T20:09:15.293Z,93.63
2018-11-21T20:11:45.862Z,93.63
2018-11-21T20:14:16.691Z,93.61
2018-11-21T20:16:47.367Z,93.61
2018-11-21T20:19:18.068Z,93.71
2018-11-21T20:21:48.670Z,93.79
2018-11-21T20:24:19.399Z,93.85
2018-11-21T20:26:50.099Z,93.89
2018-11-21T20:29:20.921Z,93.84
2018-11-21T20:31:51.492Z,93.70
2018-11-21T20:34:22.061Z,93.76
2018-11-21T20:36:52.779Z,93.69
2018-11-21T20:39:23.413Z,93.62
2018-11-21T20:41:54.020Z,93.58
2018-11-21T20:44:24.728Z,93.58
2018-11-21T20:46:55.324Z,93.56
2018-11-21T20:49:26.363Z,93.52
2018-11-21T20:51:57.026Z,93.43
2018-11-21T20:54:27.690Z,93.50
2018-11-21T20:57:03.037Z,93.38
2018-11-21T20:59:33.952Z,93.29
2018-11-21T21:02:07.488Z,93.23
2018-11-21T21:04:38.433Z,93.29
2018-11-21T21:07:09.015Z,93.36
2018-11-21T21:09:39.622Z,93.45
2018-11-21T21:12:10.307Z,93.43
2018-11-21T21:14:41.128Z,93.40
2018-11-21T21:17:13.431Z,93.33
2018-11-21T21:19:44.976Z,93.20
2018-11-21T21:22:18.482Z,93.07
2018-11-21T21:24:46.854Z,92.90
2018-11-21T21:27:20.920Z,92.86
2018-11-21T21:29:52.760Z,92.83
2018-11-21T21:32:31.337Z,92.77
2018-11-21T21:35:02.108Z,92.76
2018-11-21T21:37:32.722Z,92.77
2018-11-21T21:40:03.501Z,92.80
2018-11-21T21:42:34.195Z,92.73
2018-11-21T21:45:05.173Z,92.76
2018-11-21T21:47:41.617Z,92.75
2018-11-21T21:50:10.572Z,92.60
2018-11-21T21:52:42.265Z,92.56
2018-11-21T21:55:13.791Z,92.52
2018-11-21T21:57:52.702Z,92.52
2018-11-21T22:00:28.463Z,92.47
2018-11-21T22:03:05.662Z,92.33
2018-11-21T22:05:37.337Z,92.31
2018-11-21T22:08:10.377Z,92.25
2018-11-21T22:10:40.969Z,92.27
2018-11-21T22:13:11.692Z,92.29
2018-11-21T22:15:44.950Z,92.15
2018-11-21T22:18:16.671Z,92.01
2018-11-21T22:20:47.335Z,91.95
2018-11-21T22:23:19.197Z,91.86
2018-11-21T22:25:50.526Z,91.73
2018-11-21T22:28:21.340Z,91.56
2018-11-21T22:30:54.549Z,91.58
2018-11-21T22:33:27.846Z,91.49
2018-11-21T22:36:02.783Z,91.32
2018-11-21T22:38:30.989Z,91.36
2018-11-21T22:41:01.721Z,91.41
2018-11-21T22:43:34.506Z,91.37
2018-11-21T22:46:08.418Z,91.31
2018-11-21T22:48:39.082Z,91.26
2018-11-21T22:51:09.952Z,91.14
2018-11-21T22:53:43.161Z,90.95
2018-11-21T22:56:14.093Z,91.13
2018-11-21T22:58:44.686Z,91.17
2018-11-21T23:01:26.811Z,91.18
2018-11-21T23:03:57.470Z,91.23
2018-11-21T23:06:28.327Z,91.29
2018-11-21T23:08:58.944Z,91.34
2018-11-21T23:11:30.175Z,91.35
2018-11-21T23:14:00.925Z,91.35
2018-11-21T23:16:31.844Z,91.34
2018-11-21T23:19:02.532Z,91.44
2018-11-21T23:21:33.181Z,91.47
2018-11-21T23:24:03.899Z,91.48
2018-11-21T23:26:35.383Z,91.45
2018-11-21T23:29:06.044Z,91.54
2018-11-21T23:31:37.921Z,91.46
2018-11-21T23:34:08.932Z,91.42
2018-11-21T23:36:42.045Z,91.38
2018-11-21T23:39:13.807Z,91.53
2018-11-21T23:41:44.726Z,91.52
2018-11-21T23:44:15.335Z,91.61
2018-11-21T23:46:46.100Z,91.62
2018-11-21T23:49:16.662Z,91.54
2018-11-21T23:51:47.491Z,91.55
2018-11-21T23:54:18.116Z,91.58
2018-11-21T23:57:15.538Z,91.76
2018-11-21T23:59:21.593Z,91.64
